sensor_id;sensor_type;location;lat;lon;timestamp;P1;durP1;ratioP1;P2;durP2;ratioP2
78995;SDS011;68401;47.192;-1.552;2023-05-18T00:02:06;10.45;;;5.40;;
78995;SDS011;68401;47.192;-1.552;2023-05-18T00:04:32;9.77;;;6.03;;
78995;SDS011;68401;47.192;-1.552;2023-05-18T00:06:58;7.53;;;5.90;;
78995;SDS011;68401;47.192;-1.552;2023-05-18T00:09:31;7.18;;;4.82;;
78995;SDS011;68401;47.192;-1.552;2023-05-18T00:11:58;9.82;;;4.68;;
78995;SDS011;68401;47.192;-1.552;2023-05-18T00:14:24;8.68;;;5.30;;
78995;SDS011;68401;47.192;-1.552;2023-05-18T00:16:50;9.45;;;5.78;;
78995;SDS011;68401;47.192;-1.552;2023-05-18T00:19:18;9.68;;;5.50;;
78995;SDS011;68401;47.192;-1.552;2023-05-18T00:21:44;10.32;;;5.82;;
78995;SDS011;68401;47.192;-1.552;2023-05-18T00:24:11;11.07;;;6.72;;
78995;SDS011;68401;47.192;-1.552;2023-05-18T00:26:38;9.93;;;5.95;;
78995;SDS011;68401;47.192;-1.552;2023-05-18T00:29:05;12.70;;;5.95;;
78995;SDS011;68401;47.192;-1.552;2023-05-18T00:31:31;9.43;;;5.50;;
78995;SDS011;68401;47.192;-1.552;2023-05-18T00:36:38;8.68;;;5.15;;
78995;SDS011;68401;47.192;-1.552;2023-05-18T00:39:04;12.57;;;5.97;;
78995;SDS011;68401;47.192;-1.552;2023-05-18T00:41:30;8.05;;;4.75;;
78995;SDS011;68401;47.192;-1.552;2023-05-18T00:43:56;9.25;;;5.10;;
78995;SDS011;68401;47.192;-1.552;2023-05-18T00:46:23;9.35;;;6.03;;
78995;SDS011;68401;47.192;-1.552;2023-05-18T00:48:49;9.30;;;6.68;;
78995;SDS011;68401;47.192;-1.552;2023-05-18T00:51:16;9.95;;;5.53;;
78995;SDS011;68401;47.192;-1.552;2023-05-18T00:53:47;10.57;;;5.30;;
78995;SDS011;68401;47.192;-1.552;2023-05-18T00:56:13;8.80;;;5.47;;
78995;SDS011;68401;47.192;-1.552;2023-05-18T00:58:39;10.35;;;5.65;;
78995;SDS011;68401;47.192;-1.552;2023-05-18T01:01:06;10.20;;;5.85;;
78995;SDS011;68401;47.192;-1.552;2023-05-18T01:03:33;9.52;;;5.70;;
78995;SDS011;68401;47.192;-1.552;2023-05-18T01:06:02;10.70;;;5.70;;
78995;SDS011;68401;47.192;-1.552;2023-05-18T01:08:29;10.60;;;5.78;;
78995;SDS011;68401;47.192;-1.552;2023-05-18T01:10:59;11.63;;;6.05;;
78995;SDS011;68401;47.192;-1.552;2023-05-18T01:13:33;11.13;;;6.68;;
78995;SDS011;68401;47.192;-1.552;2023-05-18T01:16:08;12.20;;;5.90;;
78995;SDS011;68401;47.192;-1.552;2023-05-18T01:18:36;10.93;;;5.05;;
78995;SDS011;68401;47.192;-1.552;2023-05-18T01:21:18;9.07;;;5.57;;
78995;SDS011;68401;47.192;-1.552;2023-05-18T01:26:40;10.77;;;6.05;;
78995;SDS011;68401;47.192;-1.552;2023-05-18T01:29:09;8.77;;;5.18;;
78995;SDS011;68401;47.192;-1.552;2023-05-18T01:31:37;9.65;;;4.55;;
78995;SDS011;68401;47.192;-1.552;2023-05-18T01:34:03;9.10;;;4.95;;
78995;SDS011;68401;47.192;-1.552;2023-05-18T01:36:30;7.70;;;5.35;;
78995;SDS011;68401;47.192;-1.552;2023-05-18T01:38:56;9.43;;;4.68;;
78995;SDS011;68401;47.192;-1.552;2023-05-18T01:41:25;8.25;;;5.68;;
78995;SDS011;68401;47.192;-1.552;2023-05-18T01:44:00;8.10;;;4.40;;
78995;SDS011;68401;47.192;-1.552;2023-05-18T01:47:11;9.18;;;4.93;;
78995;SDS011;68401;47.192;-1.552;2023-05-18T01:49:37;9.45;;;6.68;;
78995;SDS011;68401;47.192;-1.552;2023-05-18T01:52:20;8.73;;;5.07;;
78995;SDS011;68401;47.192;-1.552;2023-05-18T01:55:02;8.02;;;4.22;;
78995;SDS011;68401;47.192;-1.552;2023-05-18T01:57:28;11.63;;;5.55;;
78995;SDS011;68401;47.192;-1.552;2023-05-18T01:59:56;7.38;;;4.80;;
78995;SDS011;68401;47.192;-1.552;2023-05-18T02:02:24;8.65;;;4.93;;
78995;SDS011;68401;47.192;-1.552;2023-05-18T02:04:49;11.68;;;5.68;;
78995;SDS011;68401;47.192;-1.552;2023-05-18T02:07:15;9.65;;;5.57;;
78995;SDS011;68401;47.192;-1.552;2023-05-18T02:09:40;10.60;;;5.47;;
78995;SDS011;68401;47.192;-1.552;2023-05-18T02:12:06;8.30;;;5.60;;
78995;SDS011;68401;47.192;-1.552;2023-05-18T02:14:32;7.57;;;5.63;;
78995;SDS011;68401;47.192;-1.552;2023-05-18T02:16:57;11.02;;;6.55;;
78995;SDS011;68401;47.192;-1.552;2023-05-18T02:19:23;12.35;;;4.97;;
78995;SDS011;68401;47.192;-1.552;2023-05-18T02:21:49;11.07;;;5.65;;
78995;SDS011;68401;47.192;-1.552;2023-05-18T02:24:15;10.50;;;5.70;;
78995;SDS011;68401;47.192;-1.552;2023-05-18T02:26:41;10.52;;;6.00;;
78995;SDS011;68401;47.192;-1.552;2023-05-18T02:29:07;13.10;;;6.35;;
78995;SDS011;68401;47.192;-1.552;2023-05-18T02:31:35;11.50;;;5.35;;
78995;SDS011;68401;47.192;-1.552;2023-05-18T02:34:04;14.10;;;6.03;;
78995;SDS011;68401;47.192;-1.552;2023-05-18T02:36:29;9.85;;;5.55;;
78995;SDS011;68401;47.192;-1.552;2023-05-18T02:39:04;14.68;;;7.03;;
78995;SDS011;68401;47.192;-1.552;2023-05-18T02:41:30;10.55;;;5.82;;
78995;SDS011;68401;47.192;-1.552;2023-05-18T02:43:59;10.73;;;7.22;;
78995;SDS011;68401;47.192;-1.552;2023-05-18T02:46:26;13.30;;;5.63;;
78995;SDS011;68401;47.192;-1.552;2023-05-18T02:48:52;11.98;;;6.47;;
78995;SDS011;68401;47.192;-1.552;2023-05-18T02:51:17;9.10;;;5.90;;
78995;SDS011;68401;47.192;-1.552;2023-05-18T02:53:43;10.30;;;5.38;;
78995;SDS011;68401;47.192;-1.552;2023-05-18T02:56:08;13.00;;;7.20;;
78995;SDS011;68401;47.192;-1.552;2023-05-18T02:58:34;12.15;;;5.68;;
78995;SDS011;68401;47.192;-1.552;2023-05-18T03:00:59;14.98;;;6.45;;
78995;SDS011;68401;47.192;-1.552;2023-05-18T03:03:27;12.95;;;6.57;;
78995;SDS011;68401;47.192;-1.552;2023-05-18T03:05:53;11.60;;;6.35;;
78995;SDS011;68401;47.192;-1.552;2023-05-18T03:08:19;9.52;;;6.55;;
78995;SDS011;68401;47.192;-1.552;2023-05-18T03:10:46;10.95;;;6.85;;
78995;SDS011;68401;47.192;-1.552;2023-05-18T03:13:12;14.02;;;6.53;;
78995;SDS011;68401;47.192;-1.552;2023-05-18T03:15:38;11.90;;;6.35;;
78995;SDS011;68401;47.192;-1.552;2023-05-18T03:18:04;10.95;;;5.68;;
78995;SDS011;68401;47.192;-1.552;2023-05-18T03:20:30;12.25;;;6.28;;
78995;SDS011;68401;47.192;-1.552;2023-05-18T03:22:56;12.43;;;6.65;;
78995;SDS011;68401;47.192;-1.552;2023-05-18T03:25:21;12.38;;;6.50;;
78995;SDS011;68401;47.192;-1.552;2023-05-18T03:27:52;12.15;;;7.18;;
78995;SDS011;68401;47.192;-1.552;2023-05-18T03:30:18;10.13;;;6.05;;
78995;SDS011;68401;47.192;-1.552;2023-05-18T03:32:45;11.63;;;5.93;;
78995;SDS011;68401;47.192;-1.552;2023-05-18T03:35:11;12.55;;;7.05;;
78995;SDS011;68401;47.192;-1.552;2023-05-18T03:37:36;10.23;;;6.25;;
78995;SDS011;68401;47.192;-1.552;2023-05-18T03:40:09;12.48;;;8.05;;
78995;SDS011;68401;47.192;-1.552;2023-05-18T03:42:38;9.43;;;6.88;;
78995;SDS011;68401;47.192;-1.552;2023-05-18T03:45:05;10.30;;;6.47;;
78995;SDS011;68401;47.192;-1.552;2023-05-18T03:47:31;10.63;;;6.40;;
78995;SDS011;68401;47.192;-1.552;2023-05-18T03:49:57;10.73;;;6.85;;
78995;SDS011;68401;47.192;-1.552;2023-05-18T03:52:23;11.35;;;5.68;;
78995;SDS011;68401;47.192;-1.552;2023-05-18T03:54:48;12.40;;;7.03;;
78995;SDS011;68401;47.192;-1.552;2023-05-18T03:57:17;10.80;;;7.20;;
78995;SDS011;68401;47.192;-1.552;2023-05-18T04:02:08;11.63;;;6.85;;
78995;SDS011;68401;47.192;-1.552;2023-05-18T04:04:34;11.90;;;5.65;;
78995;SDS011;68401;47.192;-1.552;2023-05-18T04:07:00;14.30;;;6.57;;
78995;SDS011;68401;47.192;-1.552;2023-05-18T04:09:26;13.35;;;5.85;;
78995;SDS011;68401;47.192;-1.552;2023-05-18T04:11:53;13.50;;;6.38;;
78995;SDS011;68401;47.192;-1.552;2023-05-18T04:14:18;16.50;;;6.72;;
78995;SDS011;68401;47.192;-1.552;2023-05-18T04:16:45;11.38;;;6.43;;
78995;SDS011;68401;47.192;-1.552;2023-05-18T04:19:11;11.23;;;7.13;;
78995;SDS011;68401;47.192;-1.552;2023-05-18T04:21:39;10.60;;;6.30;;
78995;SDS011;68401;47.192;-1.552;2023-05-18T04:24:07;12.35;;;7.10;;
78995;SDS011;68401;47.192;-1.552;2023-05-18T04:26:33;14.70;;;6.63;;
78995;SDS011;68401;47.192;-1.552;2023-05-18T04:29:00;17.23;;;6.72;;
78995;SDS011;68401;47.192;-1.552;2023-05-18T04:31:31;13.38;;;6.45;;
78995;SDS011;68401;47.192;-1.552;2023-05-18T04:33:57;14.45;;;6.88;;
78995;SDS011;68401;47.192;-1.552;2023-05-18T04:36:24;11.82;;;5.88;;
78995;SDS011;68401;47.192;-1.552;2023-05-18T04:38:50;10.65;;;5.78;;
78995;SDS011;68401;47.192;-1.552;2023-05-18T04:41:17;9.30;;;6.18;;
78995;SDS011;68401;47.192;-1.552;2023-05-18T04:43:46;11.38;;;6.00;;
78995;SDS011;68401;47.192;-1.552;2023-05-18T04:46:11;11.75;;;6.40;;
78995;SDS011;68401;47.192;-1.552;2023-05-18T04:48:38;12.07;;;6.05;;
78995;SDS011;68401;47.192;-1.552;2023-05-18T04:51:03;14.80;;;8.05;;
78995;SDS011;68401;47.192;-1.552;2023-05-18T04:53:30;8.73;;;6.05;;
78995;SDS011;68401;47.192;-1.552;2023-05-18T04:55:57;11.63;;;6.75;;
78995;SDS011;68401;47.192;-1.552;2023-05-18T04:58:24;15.25;;;7.55;;
78995;SDS011;68401;47.192;-1.552;2023-05-18T05:00:51;14.18;;;6.55;;
78995;SDS011;68401;47.192;-1.552;2023-05-18T05:03:17;15.00;;;6.88;;
78995;SDS011;68401;47.192;-1.552;2023-05-18T05:05:42;13.07;;;6.82;;
78995;SDS011;68401;47.192;-1.552;2023-05-18T05:08:08;10.00;;;5.65;;
78995;SDS011;68401;47.192;-1.552;2023-05-18T05:10:33;11.18;;;7.50;;
78995;SDS011;68401;47.192;-1.552;2023-05-18T05:12:59;11.55;;;6.22;;
78995;SDS011;68401;47.192;-1.552;2023-05-18T05:15:24;13.80;;;7.00;;
78995;SDS011;68401;47.192;-1.552;2023-05-18T05:17:50;13.32;;;7.20;;
78995;SDS011;68401;47.192;-1.552;2023-05-18T05:20:15;12.50;;;7.03;;
78995;SDS011;68401;47.192;-1.552;2023-05-18T05:22:41;14.85;;;8.25;;
78995;SDS011;68401;47.192;-1.552;2023-05-18T05:25:06;14.27;;;6.68;;
78995;SDS011;68401;47.192;-1.552;2023-05-18T05:27:32;11.18;;;6.68;;
78995;SDS011;68401;47.192;-1.552;2023-05-18T05:29:58;10.63;;;7.15;;
78995;SDS011;68401;47.192;-1.552;2023-05-18T05:32:23;12.98;;;7.55;;
78995;SDS011;68401;47.192;-1.552;2023-05-18T05:34:49;16.23;;;7.95;;
78995;SDS011;68401;47.192;-1.552;2023-05-18T05:37:15;12.98;;;8.95;;
78995;SDS011;68401;47.192;-1.552;2023-05-18T05:39:43;9.48;;;6.65;;
78995;SDS011;68401;47.192;-1.552;2023-05-18T05:42:08;15.13;;;8.52;;
78995;SDS011;68401;47.192;-1.552;2023-05-18T05:44:34;15.48;;;8.00;;
78995;SDS011;68401;47.192;-1.552;2023-05-18T05:47:00;11.48;;;6.55;;
78995;SDS011;68401;47.192;-1.552;2023-05-18T05:49:25;13.77;;;6.90;;
78995;SDS011;68401;47.192;-1.552;2023-05-18T05:51:51;11.95;;;8.05;;
78995;SDS011;68401;47.192;-1.552;2023-05-18T05:54:16;14.00;;;7.28;;
78995;SDS011;68401;47.192;-1.552;2023-05-18T05:56:42;12.45;;;7.10;;
78995;SDS011;68401;47.192;-1.552;2023-05-18T05:59:07;15.00;;;8.50;;
78995;SDS011;68401;47.192;-1.552;2023-05-18T06:01:33;14.00;;;6.72;;
78995;SDS011;68401;47.192;-1.552;2023-05-18T06:03:58;9.10;;;6.45;;
78995;SDS011;68401;47.192;-1.552;2023-05-18T06:06:26;11.75;;;7.63;;
78995;SDS011;68401;47.192;-1.552;2023-05-18T06:08:51;14.98;;;7.13;;
78995;SDS011;68401;47.192;-1.552;2023-05-18T06:11:17;12.77;;;6.57;;
78995;SDS011;68401;47.192;-1.552;2023-05-18T06:13:42;12.70;;;7.40;;
78995;SDS011;68401;47.192;-1.552;2023-05-18T06:16:08;11.25;;;6.97;;
78995;SDS011;68401;47.192;-1.552;2023-05-18T06:18:33;9.98;;;6.60;;
78995;SDS011;68401;47.192;-1.552;2023-05-18T06:20:59;11.00;;;7.50;;
78995;SDS011;68401;47.192;-1.552;2023-05-18T06:23:25;12.73;;;7.60;;
78995;SDS011;68401;47.192;-1.552;2023-05-18T06:25:50;13.60;;;6.93;;
78995;SDS011;68401;47.192;-1.552;2023-05-18T06:28:17;12.77;;;6.88;;
78995;SDS011;68401;47.192;-1.552;2023-05-18T06:30:42;10.65;;;7.07;;
78995;SDS011;68401;47.192;-1.552;2023-05-18T06:33:08;14.35;;;7.38;;
78995;SDS011;68401;47.192;-1.552;2023-05-18T06:35:33;11.63;;;6.60;;
78995;SDS011;68401;47.192;-1.552;2023-05-18T06:37:59;12.60;;;6.90;;
78995;SDS011;68401;47.192;-1.552;2023-05-18T06:40:24;10.93;;;7.60;;
78995;SDS011;68401;47.192;-1.552;2023-05-18T06:42:50;10.70;;;6.57;;
78995;SDS011;68401;47.192;-1.552;2023-05-18T06:45:15;9.55;;;7.03;;
78995;SDS011;68401;47.192;-1.552;2023-05-18T06:47:41;15.60;;;6.50;;
78995;SDS011;68401;47.192;-1.552;2023-05-18T06:50:07;16.73;;;7.60;;
78995;SDS011;68401;47.192;-1.552;2023-05-18T06:52:33;9.32;;;6.53;;
78995;SDS011;68401;47.192;-1.552;2023-05-18T06:54:59;16.25;;;6.95;;
78995;SDS011;68401;47.192;-1.552;2023-05-18T06:57:28;12.73;;;6.72;;
78995;SDS011;68401;47.192;-1.552;2023-05-18T06:59:53;11.82;;;6.57;;
78995;SDS011;68401;47.192;-1.552;2023-05-18T07:02:19;12.43;;;6.32;;
78995;SDS011;68401;47.192;-1.552;2023-05-18T07:04:45;13.40;;;6.43;;
78995;SDS011;68401;47.192;-1.552;2023-05-18T07:07:12;11.27;;;5.75;;
78995;SDS011;68401;47.192;-1.552;2023-05-18T07:09:37;11.55;;;6.13;;
78995;SDS011;68401;47.192;-1.552;2023-05-18T07:12:03;11.25;;;6.60;;
78995;SDS011;68401;47.192;-1.552;2023-05-18T07:14:29;7.90;;;5.28;;
78995;SDS011;68401;47.192;-1.552;2023-05-18T07:16:54;12.40;;;6.50;;
78995;SDS011;68401;47.192;-1.552;2023-05-18T07:19:20;14.77;;;7.60;;
78995;SDS011;68401;47.192;-1.552;2023-05-18T07:21:45;12.13;;;6.25;;
78995;SDS011;68401;47.192;-1.552;2023-05-18T07:24:10;8.07;;;5.93;;
78995;SDS011;68401;47.192;-1.552;2023-05-18T07:26:36;10.15;;;5.78;;
78995;SDS011;68401;47.192;-1.552;2023-05-18T07:29:01;12.10;;;6.63;;
78995;SDS011;68401;47.192;-1.552;2023-05-18T07:31:27;10.77;;;6.22;;
78995;SDS011;68401;47.192;-1.552;2023-05-18T07:33:52;15.65;;;9.30;;
78995;SDS011;68401;47.192;-1.552;2023-05-18T07:36:17;13.43;;;6.63;;
78995;SDS011;68401;47.192;-1.552;2023-05-18T07:38:43;9.43;;;5.55;;
78995;SDS011;68401;47.192;-1.552;2023-05-18T07:41:08;11.93;;;6.35;;
78995;SDS011;68401;47.192;-1.552;2023-05-18T07:43:34;12.13;;;6.55;;
78995;SDS011;68401;47.192;-1.552;2023-05-18T07:46:00;11.90;;;6.47;;
78995;SDS011;68401;47.192;-1.552;2023-05-18T07:48:25;9.30;;;5.40;;
78995;SDS011;68401;47.192;-1.552;2023-05-18T07:50:51;12.02;;;6.70;;
78995;SDS011;68401;47.192;-1.552;2023-05-18T07:53:16;11.70;;;6.20;;
78995;SDS011;68401;47.192;-1.552;2023-05-18T07:55:41;15.45;;;6.68;;
78995;SDS011;68401;47.192;-1.552;2023-05-18T07:58:07;12.23;;;5.75;;
78995;SDS011;68401;47.192;-1.552;2023-05-18T08:00:33;8.35;;;5.82;;
78995;SDS011;68401;47.192;-1.552;2023-05-18T08:02:59;10.40;;;5.65;;
78995;SDS011;68401;47.192;-1.552;2023-05-18T08:07:52;8.85;;;5.07;;
78995;SDS011;68401;47.192;-1.552;2023-05-18T08:10:18;9.80;;;5.03;;
78995;SDS011;68401;47.192;-1.552;2023-05-18T08:12:43;8.65;;;5.00;;
78995;SDS011;68401;47.192;-1.552;2023-05-18T08:15:09;10.23;;;5.43;;
78995;SDS011;68401;47.192;-1.552;2023-05-18T08:17:36;9.30;;;6.00;;
78995;SDS011;68401;47.192;-1.552;2023-05-18T08:20:01;9.70;;;5.72;;
78995;SDS011;68401;47.192;-1.552;2023-05-18T08:22:28;8.65;;;5.15;;
78995;SDS011;68401;47.192;-1.552;2023-05-18T08:24:54;11.52;;;5.40;;
78995;SDS011;68401;47.192;-1.552;2023-05-18T08:27:20;11.18;;;5.82;;
78995;SDS011;68401;47.192;-1.552;2023-05-18T08:29:46;11.18;;;5.55;;
78995;SDS011;68401;47.192;-1.552;2023-05-18T08:32:11;12.45;;;5.80;;
78995;SDS011;68401;47.192;-1.552;2023-05-18T08:34:37;8.32;;;5.05;;
78995;SDS011;68401;47.192;-1.552;2023-05-18T08:37:02;9.32;;;6.03;;
78995;SDS011;68401;47.192;-1.552;2023-05-18T08:39:28;10.70;;;5.68;;
78995;SDS011;68401;47.192;-1.552;2023-05-18T08:44:53;11.07;;;5.22;;
78995;SDS011;68401;47.192;-1.552;2023-05-18T08:47:44;12.95;;;5.40;;
78995;SDS011;68401;47.192;-1.552;2023-05-18T08:50:10;8.70;;;4.50;;
78995;SDS011;68401;47.192;-1.552;2023-05-18T08:52:40;7.53;;;5.43;;
78995;SDS011;68401;47.192;-1.552;2023-05-18T08:55:07;9.75;;;5.13;;
78995;SDS011;68401;47.192;-1.552;2023-05-18T08:57:34;8.13;;;5.15;;
78995;SDS011;68401;47.192;-1.552;2023-05-18T09:00:00;10.00;;;5.57;;
78995;SDS011;68401;47.192;-1.552;2023-05-18T09:02:27;7.90;;;4.32;;
78995;SDS011;68401;47.192;-1.552;2023-05-18T09:04:53;9.57;;;4.15;;
78995;SDS011;68401;47.192;-1.552;2023-05-18T09:07:20;9.93;;;5.32;;
78995;SDS011;68401;47.192;-1.552;2023-05-18T09:09:46;11.20;;;4.40;;
78995;SDS011;68401;47.192;-1.552;2023-05-18T09:12:12;8.10;;;3.95;;
78995;SDS011;68401;47.192;-1.552;2023-05-18T09:14:39;10.68;;;5.47;;
78995;SDS011;68401;47.192;-1.552;2023-05-18T09:17:05;7.53;;;4.65;;
78995;SDS011;68401;47.192;-1.552;2023-05-18T09:19:31;8.20;;;4.53;;
78995;SDS011;68401;47.192;-1.552;2023-05-18T09:21:57;7.13;;;4.18;;
78995;SDS011;68401;47.192;-1.552;2023-05-18T09:24:22;8.48;;;4.40;;
78995;SDS011;68401;47.192;-1.552;2023-05-18T09:26:47;10.75;;;5.03;;
78995;SDS011;68401;47.192;-1.552;2023-05-18T09:29:17;7.32;;;4.47;;
78995;SDS011;68401;47.192;-1.552;2023-05-18T09:31:44;8.15;;;3.90;;
78995;SDS011;68401;47.192;-1.552;2023-05-18T09:34:11;12.35;;;4.75;;
78995;SDS011;68401;47.192;-1.552;2023-05-18T09:36:37;6.60;;;4.07;;
78995;SDS011;68401;47.192;-1.552;2023-05-18T09:39:06;8.10;;;4.28;;
78995;SDS011;68401;47.192;-1.552;2023-05-18T09:41:34;7.57;;;4.18;;
78995;SDS011;68401;47.192;-1.552;2023-05-18T09:44:01;10.63;;;4.78;;
78995;SDS011;68401;47.192;-1.552;2023-05-18T09:46:33;9.32;;;4.15;;
78995;SDS011;68401;47.192;-1.552;2023-05-18T09:49:01;5.25;;;3.63;;
78995;SDS011;68401;47.192;-1.552;2023-05-18T09:51:28;5.20;;;3.55;;
78995;SDS011;68401;47.192;-1.552;2023-05-18T09:53:54;7.63;;;3.85;;
78995;SDS011;68401;47.192;-1.552;2023-05-18T09:56:21;6.13;;;3.60;;
78995;SDS011;68401;47.192;-1.552;2023-05-18T09:58:47;6.13;;;3.80;;
78995;SDS011;68401;47.192;-1.552;2023-05-18T10:01:12;7.20;;;3.58;;
78995;SDS011;68401;47.192;-1.552;2023-05-18T10:03:37;7.57;;;3.80;;
78995;SDS011;68401;47.192;-1.552;2023-05-18T10:06:04;7.70;;;3.85;;
78995;SDS011;68401;47.192;-1.552;2023-05-18T10:08:34;6.57;;;3.53;;
78995;SDS011;68401;47.192;-1.552;2023-05-18T10:11:00;6.65;;;3.55;;
78995;SDS011;68401;47.192;-1.552;2023-05-18T10:13:27;4.22;;;3.13;;
78995;SDS011;68401;47.192;-1.552;2023-05-18T10:15:55;6.97;;;3.10;;
78995;SDS011;68401;47.192;-1.552;2023-05-18T10:18:23;8.63;;;3.95;;
78995;SDS011;68401;47.192;-1.552;2023-05-18T10:20:51;5.18;;;3.17;;
78995;SDS011;68401;47.192;-1.552;2023-05-18T10:23:17;5.95;;;3.30;;
78995;SDS011;68401;47.192;-1.552;2023-05-18T10:25:44;7.00;;;3.30;;
78995;SDS011;68401;47.192;-1.552;2023-05-18T10:28:11;8.20;;;4.22;;
78995;SDS011;68401;47.192;-1.552;2023-05-18T10:30:39;7.72;;;3.80;;
78995;SDS011;68401;47.192;-1.552;2023-05-18T10:33:05;6.38;;;3.40;;
78995;SDS011;68401;47.192;-1.552;2023-05-18T10:35:32;6.90;;;3.05;;
78995;SDS011;68401;47.192;-1.552;2023-05-18T10:37:58;6.93;;;3.47;;
78995;SDS011;68401;47.192;-1.552;2023-05-18T10:40:23;7.88;;;3.80;;
78995;SDS011;68401;47.192;-1.552;2023-05-18T10:42:51;6.90;;;3.53;;
78995;SDS011;68401;47.192;-1.552;2023-05-18T10:45:17;5.85;;;3.75;;
78995;SDS011;68401;47.192;-1.552;2023-05-18T10:47:43;6.18;;;4.25;;
78995;SDS011;68401;47.192;-1.552;2023-05-18T10:50:09;7.20;;;3.75;;
78995;SDS011;68401;47.192;-1.552;2023-05-18T10:52:37;6.20;;;4.00;;
78995;SDS011;68401;47.192;-1.552;2023-05-18T10:55:04;7.18;;;3.55;;
78995;SDS011;68401;47.192;-1.552;2023-05-18T10:57:32;6.72;;;4.22;;
78995;SDS011;68401;47.192;-1.552;2023-05-18T11:00:03;8.38;;;3.63;;
78995;SDS011;68401;47.192;-1.552;2023-05-18T11:02:31;6.22;;;3.15;;
78995;SDS011;68401;47.192;-1.552;2023-05-18T11:04:57;5.82;;;3.28;;
78995;SDS011;68401;47.192;-1.552;2023-05-18T11:07:22;6.10;;;3.72;;
78995;SDS011;68401;47.192;-1.552;2023-05-18T11:09:50;4.93;;;3.03;;
78995;SDS011;68401;47.192;-1.552;2023-05-18T11:12:16;6.28;;;3.60;;
78995;SDS011;68401;47.192;-1.552;2023-05-18T11:14:48;6.80;;;3.65;;
78995;SDS011;68401;47.192;-1.552;2023-05-18T11:25:42;5.78;;;3.55;;
78995;SDS011;68401;47.192;-1.552;2023-05-18T11:28:09;6.65;;;3.83;;
78995;SDS011;68401;47.192;-1.552;2023-05-18T11:35:32;6.00;;;3.20;;
78995;SDS011;68401;47.192;-1.552;2023-05-18T11:38:07;5.97;;;3.42;;
78995;SDS011;68401;47.192;-1.552;2023-05-18T11:40:45;6.25;;;3.40;;
78995;SDS011;68401;47.192;-1.552;2023-05-18T11:43:24;6.28;;;3.42;;
78995;SDS011;68401;47.192;-1.552;2023-05-18T11:45:57;8.65;;;3.70;;
78995;SDS011;68401;47.192;-1.552;2023-05-18T11:48:24;7.72;;;3.97;;
78995;SDS011;68401;47.192;-1.552;2023-05-18T11:50:53;7.28;;;3.83;;
78995;SDS011;68401;47.192;-1.552;2023-05-18T11:53:23;7.43;;;4.50;;
78995;SDS011;68401;47.192;-1.552;2023-05-18T11:55:53;5.35;;;3.53;;
78995;SDS011;68401;47.192;-1.552;2023-05-18T11:58:24;8.85;;;4.72;;
78995;SDS011;68401;47.192;-1.552;2023-05-18T12:00:50;5.85;;;3.78;;
78995;SDS011;68401;47.192;-1.552;2023-05-18T12:03:15;5.45;;;3.70;;
78995;SDS011;68401;47.192;-1.552;2023-05-18T12:05:42;8.45;;;4.68;;
78995;SDS011;68401;47.192;-1.552;2023-05-18T12:08:16;7.90;;;3.53;;
78995;SDS011;68401;47.192;-1.552;2023-05-18T12:10:43;5.68;;;3.50;;
78995;SDS011;68401;47.192;-1.552;2023-05-18T12:13:11;6.07;;;3.50;;
78995;SDS011;68401;47.192;-1.552;2023-05-18T12:15:41;5.60;;;3.78;;
78995;SDS011;68401;47.192;-1.552;2023-05-18T12:18:07;7.68;;;3.47;;
78995;SDS011;68401;47.192;-1.552;2023-05-18T12:20:32;9.80;;;4.00;;
78995;SDS011;68401;47.192;-1.552;2023-05-18T12:22:59;7.07;;;3.75;;
78995;SDS011;68401;47.192;-1.552;2023-05-18T12:25:25;8.77;;;4.10;;
78995;SDS011;68401;47.192;-1.552;2023-05-18T12:27:52;9.80;;;4.53;;
78995;SDS011;68401;47.192;-1.552;2023-05-18T12:30:19;7.68;;;4.10;;
78995;SDS011;68401;47.192;-1.552;2023-05-18T12:32:52;8.50;;;4.43;;
78995;SDS011;68401;47.192;-1.552;2023-05-18T12:35:25;13.68;;;7.47;;
78995;SDS011;68401;47.192;-1.552;2023-05-18T12:37:51;12.18;;;8.95;;
78995;SDS011;68401;47.192;-1.552;2023-05-18T12:40:19;7.07;;;4.05;;
78995;SDS011;68401;47.192;-1.552;2023-05-18T12:45:25;9.07;;;4.68;;
78995;SDS011;68401;47.192;-1.552;2023-05-18T12:47:52;9.50;;;5.03;;
78995;SDS011;68401;47.192;-1.552;2023-05-18T12:50:22;10.70;;;4.88;;
78995;SDS011;68401;47.192;-1.552;2023-05-18T12:52:50;9.02;;;7.15;;
78995;SDS011;68401;47.192;-1.552;2023-05-18T12:55:19;8.23;;;4.70;;
78995;SDS011;68401;47.192;-1.552;2023-05-18T12:58:05;7.18;;;4.47;;
78995;SDS011;68401;47.192;-1.552;2023-05-18T13:03:11;8.38;;;3.75;;
78995;SDS011;68401;47.192;-1.552;2023-05-18T13:05:41;8.52;;;4.22;;
78995;SDS011;68401;47.192;-1.552;2023-05-18T13:08:12;5.70;;;4.55;;
78995;SDS011;68401;47.192;-1.552;2023-05-18T13:10:43;8.88;;;4.45;;
78995;SDS011;68401;47.192;-1.552;2023-05-18T13:13:09;8.30;;;5.00;;
78995;SDS011;68401;47.192;-1.552;2023-05-18T13:15:35;7.80;;;3.83;;
78995;SDS011;68401;47.192;-1.552;2023-05-18T13:18:05;7.90;;;4.78;;
78995;SDS011;68401;47.192;-1.552;2023-05-18T13:20:35;8.38;;;4.22;;
78995;SDS011;68401;47.192;-1.552;2023-05-18T13:23:05;7.85;;;3.75;;
78995;SDS011;68401;47.192;-1.552;2023-05-18T13:27:57;7.77;;;4.20;;
78995;SDS011;68401;47.192;-1.552;2023-05-18T13:30:23;7.75;;;4.50;;
78995;SDS011;68401;47.192;-1.552;2023-05-18T13:32:49;12.25;;;4.47;;
78995;SDS011;68401;47.192;-1.552;2023-05-18T13:35:15;8.00;;;4.45;;
78995;SDS011;68401;47.192;-1.552;2023-05-18T13:37:42;7.22;;;4.40;;
78995;SDS011;68401;47.192;-1.552;2023-05-18T13:40:10;10.93;;;4.65;;
78995;SDS011;68401;47.192;-1.552;2023-05-18T13:42:37;7.72;;;4.03;;
78995;SDS011;68401;47.192;-1.552;2023-05-18T13:45:03;9.68;;;4.47;;
78995;SDS011;68401;47.192;-1.552;2023-05-18T13:47:28;9.80;;;4.65;;
78995;SDS011;68401;47.192;-1.552;2023-05-18T13:49:54;7.93;;;4.32;;
78995;SDS011;68401;47.192;-1.552;2023-05-18T13:52:20;8.55;;;4.22;;
78995;SDS011;68401;47.192;-1.552;2023-05-18T13:54:45;8.55;;;4.22;;
78995;SDS011;68401;47.192;-1.552;2023-05-18T13:57:10;8.32;;;5.18;;
78995;SDS011;68401;47.192;-1.552;2023-05-18T13:59:36;7.55;;;4.20;;
78995;SDS011;68401;47.192;-1.552;2023-05-18T14:02:01;8.85;;;4.95;;
78995;SDS011;68401;47.192;-1.552;2023-05-18T14:04:27;9.35;;;5.18;;
78995;SDS011;68401;47.192;-1.552;2023-05-18T14:06:52;6.43;;;4.30;;
78995;SDS011;68401;47.192;-1.552;2023-05-18T14:09:18;8.00;;;4.45;;
78995;SDS011;68401;47.192;-1.552;2023-05-18T14:11:43;11.10;;;5.28;;
78995;SDS011;68401;47.192;-1.552;2023-05-18T14:14:09;10.02;;;5.18;;
78995;SDS011;68401;47.192;-1.552;2023-05-18T14:16:34;6.43;;;4.38;;
78995;SDS011;68401;47.192;-1.552;2023-05-18T14:19:00;8.18;;;4.60;;
78995;SDS011;68401;47.192;-1.552;2023-05-18T14:21:26;6.68;;;4.00;;
78995;SDS011;68401;47.192;-1.552;2023-05-18T14:23:51;8.20;;;4.45;;
78995;SDS011;68401;47.192;-1.552;2023-05-18T14:26:17;9.52;;;4.63;;
78995;SDS011;68401;47.192;-1.552;2023-05-18T14:28:42;7.50;;;4.38;;
78995;SDS011;68401;47.192;-1.552;2023-05-18T14:31:08;10.15;;;4.75;;
78995;SDS011;68401;47.192;-1.552;2023-05-18T14:33:33;6.70;;;4.50;;
78995;SDS011;68401;47.192;-1.552;2023-05-18T14:35:58;7.22;;;4.82;;
78995;SDS011;68401;47.192;-1.552;2023-05-18T14:38:24;9.93;;;4.97;;
78995;SDS011;68401;47.192;-1.552;2023-05-18T14:40:51;8.07;;;4.70;;
78995;SDS011;68401;47.192;-1.552;2023-05-18T14:43:17;8.65;;;4.60;;
78995;SDS011;68401;47.192;-1.552;2023-05-18T14:45:42;7.05;;;4.97;;
78995;SDS011;68401;47.192;-1.552;2023-05-18T14:48:08;10.32;;;4.65;;
78995;SDS011;68401;47.192;-1.552;2023-05-18T14:50:34;6.63;;;4.55;;
78995;SDS011;68401;47.192;-1.552;2023-05-18T14:53:00;9.07;;;4.57;;
78995;SDS011;68401;47.192;-1.552;2023-05-18T14:55:25;8.80;;;4.53;;
78995;SDS011;68401;47.192;-1.552;2023-05-18T14:57:51;7.35;;;4.40;;
78995;SDS011;68401;47.192;-1.552;2023-05-18T15:00:16;8.80;;;4.22;;
78995;SDS011;68401;47.192;-1.552;2023-05-18T15:02:42;8.35;;;4.80;;